sensor_id;sensor_type;location;lat;lon;timestamp;pressure;altitude;pressure_sealevel;temperature;humidity
10466;BME280;5280;42.600;23.556;2023-02-23T00:00:18;93276.06;;;6.77;80.96
10466;BME280;5280;42.600;23.556;2023-02-23T00:02:52;93275.22;;;6.77;80.68
10466;BME280;5280;42.600;23.556;2023-02-23T00:05:20;93257.72;;;6.63;80.33
10466;BME280;5280;42.600;23.556;2023-02-23T00:07:47;93257.09;;;6.60;80.38
10466;BME280;5280;42.600;23.556;2023-02-23T00:10:17;93257.09;;;6.60;80.26
10466;BME280;5280;42.600;23.556;2023-02-23T00:12:46;93282.72;;;6.69;80.97
10466;BME280;5280;42.600;23.556;2023-02-23T00:15:14;93280.63;;;6.61;81.09
10466;BME280;5280;42.600;23.556;2023-02-23T00:17:42;93249.38;;;6.44;80.73
10466;BME280;5280;42.600;23.556;2023-02-23T00:20:13;93275.38;;;6.61;80.81
10466;BME280;5280;42.600;23.556;2023-02-23T00:22:41;93271.53;;;6.53;80.20
10466;BME280;5280;42.600;23.556;2023-02-23T00:25:09;93281.47;;;6.62;80.29
10466;BME280;5280;42.600;23.556;2023-02-23T00:27:37;93276.31;;;6.60;80.21
10466;BME280;5280;42.600;23.556;2023-02-23T00:30:10;93277.25;;;6.59;80.40
10466;BME280;5280;42.600;23.556;2023-02-23T00:32:37;93284.19;;;6.60;80.11
10466;BME280;5280;42.600;23.556;2023-02-23T00:35:06;93269.03;;;6.51;80.27
10466;BME280;5280;42.600;23.556;2023-02-23T00:37:41;93265.88;;;6.46;81.06
10466;BME280;5280;42.600;23.556;2023-02-23T00:40:09;93281.41;;;6.49;82.13
10466;BME280;5280;42.600;23.556;2023-02-23T00:42:41;93277.31;;;6.45;83.11
10466;BME280;5280;42.600;23.556;2023-02-23T00:45:09;93273.00;;;6.44;83.03
10466;BME280;5280;42.600;23.556;2023-02-23T00:47:38;93274.69;;;6.45;82.71
10466;BME280;5280;42.600;23.556;2023-02-23T00:50:08;93248.28;;;6.34;82.95
10466;BME280;5280;42.600;23.556;2023-02-23T00:52:37;93277.31;;;6.45;82.22
10466;BME280;5280;42.600;23.556;2023-02-23T00:55:06;93269.94;;;6.37;82.61
10466;BME280;5280;42.600;23.556;2023-02-23T00:57:33;93260.56;;;6.33;82.13
10466;BME280;5280;42.600;23.556;2023-02-23T01:00:00;93262.56;;;6.30;82.92
10466;BME280;5280;42.600;23.556;2023-02-23T01:02:31;93265.94;;;6.32;83.62
10466;BME280;5280;42.600;23.556;2023-02-23T01:04:58;93267.06;;;6.28;83.66
10466;BME280;5280;42.600;23.556;2023-02-23T01:07:27;93270.66;;;6.27;83.84
10466;BME280;5280;42.600;23.556;2023-02-23T01:09:54;93265.25;;;6.16;84.84
10466;BME280;5280;42.600;23.556;2023-02-23T01:12:20;93263.75;;;6.12;85.74
10466;BME280;5280;42.600;23.556;2023-02-23T01:14:48;93260.38;;;6.10;85.53
10466;BME280;5280;42.600;23.556;2023-02-23T01:17:14;93275.53;;;6.19;85.20
10466;BME280;5280;42.600;23.556;2023-02-23T01:19:42;93260.28;;;6.11;85.18
10466;BME280;5280;42.600;23.556;2023-02-23T01:22:09;93265.25;;;6.16;85.35
10466;BME280;5280;42.600;23.556;2023-02-23T01:24:37;93269.56;;;6.17;85.19
10466;BME280;5280;42.600;23.556;2023-02-23T01:27:04;93261.13;;;6.12;86.12
10466;BME280;5280;42.600;23.556;2023-02-23T01:29:31;93252.91;;;6.03;85.98
10466;BME280;5280;42.600;23.556;2023-02-23T01:31:57;93268.88;;;6.13;85.66
10466;BME280;5280;42.600;23.556;2023-02-23T01:34:24;93258.81;;;6.07;85.75
10466;BME280;5280;42.600;23.556;2023-02-23T01:36:51;93256.28;;;6.05;85.24
10466;BME280;5280;42.600;23.556;2023-02-23T01:39:19;93268.47;;;6.07;86.21
10466;BME280;5280;42.600;23.556;2023-02-23T01:41:48;93261.91;;;5.99;86.02
10466;BME280;5280;42.600;23.556;2023-02-23T01:47:22;93247.41;;;5.94;85.74
10466;BME280;5280;42.600;23.556;2023-02-23T01:49:51;93266.84;;;6.04;85.72
10466;BME280;5280;42.600;23.556;2023-02-23T01:52:18;93263.50;;;6.02;85.95
10466;BME280;5280;42.600;23.556;2023-02-23T01:54:47;93255.25;;;5.94;86.05
10466;BME280;5280;42.600;23.556;2023-02-23T01:57:18;93252.75;;;5.92;86.49
10466;BME280;5280;42.600;23.556;2023-02-23T01:59:48;93255.25;;;5.94;86.76
10466;BME280;5280;42.600;23.556;2023-02-23T02:02:16;93221.81;;;5.83;85.69
10466;BME280;5280;42.600;23.556;2023-02-23T02:04:43;93256.66;;;5.99;85.37
10466;BME280;5280;42.600;23.556;2023-02-23T02:07:10;93255.53;;;6.03;85.56
10466;BME280;5280;42.600;23.556;2023-02-23T02:09:39;93258.13;;;6.03;86.70
10466;BME280;5280;42.600;23.556;2023-02-23T02:12:28;93253.09;;;6.00;86.74
10466;BME280;5280;42.600;23.556;2023-02-23T02:14:57;93252.16;;;6.01;86.39
10466;BME280;5280;42.600;23.556;2023-02-23T02:17:35;93248.63;;;6.02;86.22
10466;BME280;5280;42.600;23.556;2023-02-23T02:20:29;93246.81;;;6.03;85.73
10466;BME280;5280;42.600;23.556;2023-02-23T02:23:26;93246.00;;;6.02;85.38
10466;BME280;5280;42.600;23.556;2023-02-23T02:26:07;93239.44;;;5.95;84.82
10466;BME280;5280;42.600;23.556;2023-02-23T02:29:04;93247.84;;;6.00;84.95
10466;BME280;5280;42.600;23.556;2023-02-23T02:31:53;93246.56;;;5.93;85.71
10466;BME280;5280;42.600;23.556;2023-02-23T02:34:49;93251.63;;;5.96;87.19
10466;BME280;5280;42.600;23.556;2023-02-23T02:37:51;93249.09;;;5.95;85.97
10466;BME280;5280;42.600;23.556;2023-02-23T02:40:26;93246.84;;;5.89;85.99
10466;BME280;5280;42.600;23.556;2023-02-23T02:43:04;93227.28;;;5.80;87.17
10466;BME280;5280;42.600;23.556;2023-02-23T02:45:40;93240.19;;;5.83;86.75
10466;BME280;5280;42.600;23.556;2023-02-23T02:48:15;93196.63;;;5.54;86.17
10466;BME280;5280;42.600;23.556;2023-02-23T02:50:46;93254.53;;;5.92;86.90
10466;BME280;5280;42.600;23.556;2023-02-23T02:53:22;93251.38;;;5.87;85.93
10466;BME280;5280;42.600;23.556;2023-02-23T02:55:53;93225.69;;;5.63;86.78
10466;BME280;5280;42.600;23.556;2023-02-23T02:58:24;93256.31;;;5.77;87.30
10466;BME280;5280;42.600;23.556;2023-02-23T03:00:52;93251.06;;;5.77;87.56
10466;BME280;5280;42.600;23.556;2023-02-23T03:03:38;93252.28;;;5.72;88.06
10466;BME280;5280;42.600;23.556;2023-02-23T03:06:27;93191.13;;;5.30;87.97
10466;BME280;5280;42.600;23.556;2023-02-23T03:09:23;93247.72;;;5.61;88.48
10466;BME280;5280;42.600;23.556;2023-02-23T03:12:13;93257.44;;;5.59;89.38
10466;BME280;5280;42.600;23.556;2023-02-23T03:15:06;93255.97;;;5.55;89.38
10466;BME280;5280;42.600;23.556;2023-02-23T03:18:01;93254.94;;;5.57;88.77
10466;BME280;5280;42.600;23.556;2023-02-23T03:20:53;93241.75;;;5.45;88.81
10466;BME280;5280;42.600;23.556;2023-02-23T03:23:49;93231.63;;;5.39;87.84
10466;BME280;5280;42.600;23.556;2023-02-23T03:26:42;93240.59;;;5.49;88.07
10466;BME280;5280;42.600;23.556;2023-02-23T03:29:34;93260.81;;;5.61;88.28
10466;BME280;5280;42.600;23.556;2023-02-23T03:32:24;93260.81;;;5.61;87.59
10466;BME280;5280;42.600;23.556;2023-02-23T03:35:14;93258.22;;;5.61;86.80
10466;BME280;5280;42.600;23.556;2023-02-23T03:38:05;93254.28;;;5.54;88.28
10466;BME280;5280;42.600;23.556;2023-02-23T03:40:53;93257.00;;;5.52;88.02
10466;BME280;5280;42.600;23.556;2023-02-23T03:43:43;93255.59;;;5.47;88.73
10466;BME280;5280;42.600;23.556;2023-02-23T03:46:30;93257.28;;;5.48;88.79
10466;BME280;5280;42.600;23.556;2023-02-23T03:49:17;93255.50;;;5.48;88.00
10466;BME280;5280;42.600;23.556;2023-02-23T03:52:08;93250.44;;;5.45;88.40
10466;BME280;5280;42.600;23.556;2023-02-23T03:54:57;93261.13;;;5.42;88.85
10466;BME280;5280;42.600;23.556;2023-02-23T03:57:45;93259.25;;;5.44;89.34
10466;BME280;5280;42.600;23.556;2023-02-23T04:00:38;93268.88;;;5.44;89.81
10466;BME280;5280;42.600;23.556;2023-02-23T04:03:24;93261.59;;;5.35;90.05
10466;BME280;5280;42.600;23.556;2023-02-23T04:06:11;93263.47;;;5.33;90.26
10466;BME280;5280;42.600;23.556;2023-02-23T04:08:58;93269.28;;;5.38;90.06
10466;BME280;5280;42.600;23.556;2023-02-23T04:11:48;93269.28;;;5.38;89.50
10466;BME280;5280;42.600;23.556;2023-02-23T04:14:38;93271.06;;;5.37;89.77
10466;BME280;5280;42.600;23.556;2023-02-23T04:17:09;93270.94;;;5.39;90.77
10466;BME280;5280;42.600;23.556;2023-02-23T04:19:36;93253.25;;;5.28;89.76
10466;BME280;5280;42.600;23.556;2023-02-23T04:22:03;93270.78;;;5.42;89.26
10466;BME280;5280;42.600;23.556;2023-02-23T04:24:30;93268.16;;;5.42;88.40
10466;BME280;5280;42.600;23.556;2023-02-23T04:26:57;93269.06;;;5.41;89.29
10466;BME280;5280;42.600;23.556;2023-02-23T04:29:23;93262.34;;;5.37;89.85
10466;BME280;5280;42.600;23.556;2023-02-23T04:31:50;93200.41;;;4.93;89.96
10466;BME280;5280;42.600;23.556;2023-02-23T04:34:19;93266.56;;;5.25;90.12
10466;BME280;5280;42.600;23.556;2023-02-23T04:36:46;93279.75;;;5.38;89.97
10466;BME280;5280;42.600;23.556;2023-02-23T04:39:15;93276.38;;;5.36;89.29
10466;BME280;5280;42.600;23.556;2023-02-23T04:41:42;93280.56;;;5.38;89.67
10466;BME280;5280;42.600;23.556;2023-02-23T04:44:09;93285.81;;;5.38;88.77
10466;BME280;5280;42.600;23.556;2023-02-23T04:46:36;93282.25;;;5.39;88.71
10466;BME280;5280;42.600;23.556;2023-02-23T04:49:03;93272.91;;;5.35;88.95
10466;BME280;5280;42.600;23.556;2023-02-23T04:51:31;93279.75;;;5.38;88.51
10466;BME280;5280;42.600;23.556;2023-02-23T04:53:58;93263.84;;;5.27;89.10
10466;BME280;5280;42.600;23.556;2023-02-23T04:56:25;93268.31;;;5.25;89.50
10466;BME280;5280;42.600;23.556;2023-02-23T04:58:52;93267.88;;;5.18;89.75
10466;BME280;5280;42.600;23.556;2023-02-23T05:01:19;93274.41;;;5.25;90.11
10466;BME280;5280;42.600;23.556;2023-02-23T05:03:46;93282.19;;;5.27;89.59
10466;BME280;5280;42.600;23.556;2023-02-23T05:06:13;93287.41;;;5.27;88.70
10466;BME280;5280;42.600;23.556;2023-02-23T05:08:42;93290.97;;;5.26;88.68
10466;BME280;5280;42.600;23.556;2023-02-23T05:11:09;93283.41;;;5.21;89.00
10466;BME280;5280;42.600;23.556;2023-02-23T05:13:35;93284.53;;;5.17;89.18
10466;BME280;5280;42.600;23.556;2023-02-23T05:16:03;93288.81;;;5.18;88.96
10466;BME280;5280;42.600;23.556;2023-02-23T05:18:30;93276.25;;;5.09;88.89
10466;BME280;5280;42.600;23.556;2023-02-23T05:21:00;93284.31;;;5.06;89.71
10466;BME280;5280;42.600;23.556;2023-02-23T05:23:28;93295.44;;;5.09;89.98
10466;BME280;5280;42.600;23.556;2023-02-23T05:25:59;93292.81;;;5.09;90.15
10466;BME280;5280;42.600;23.556;2023-02-23T05:28:28;93295.16;;;5.00;90.59
10466;BME280;5280;42.600;23.556;2023-02-23T05:30:55;93281.69;;;4.92;90.80
10466;BME280;5280;42.600;23.556;2023-02-23T05:33:22;93289.06;;;4.99;90.81
10466;BME280;5280;42.600;23.556;2023-02-23T05:35:49;93286.56;;;4.98;91.04
10466;BME280;5280;42.600;23.556;2023-02-23T05:38:15;93293.66;;;4.96;91.44
10466;BME280;5280;42.600;23.556;2023-02-23T05:40:42;93284.72;;;4.84;91.34
10466;BME280;5280;42.600;23.556;2023-02-23T05:43:10;93286.63;;;4.82;92.73
10466;BME280;5280;42.600;23.556;2023-02-23T05:45:39;93291.84;;;4.82;91.84
10466;BME280;5280;42.600;23.556;2023-02-23T05:48:06;93307.38;;;4.85;91.08
10466;BME280;5280;42.600;23.556;2023-02-23T05:50:33;93314.69;;;4.94;91.29
10466;BME280;5280;42.600;23.556;2023-02-23T05:53:00;93309.34;;;4.96;91.04
10466;BME280;5280;42.600;23.556;2023-02-23T05:55:27;93322.44;;;4.96;91.66
10466;BME280;5280;42.600;23.556;2023-02-23T05:57:54;93317.66;;;4.88;92.08
10466;BME280;5280;42.600;23.556;2023-02-23T06:00:22;93327.78;;;4.94;92.53
10466;BME280;5280;42.600;23.556;2023-02-23T06:02:49;93328.88;;;4.90;92.43
10466;BME280;5280;42.600;23.556;2023-02-23T06:05:18;93334.03;;;4.92;92.42
10466;BME280;5280;42.600;23.556;2023-02-23T06:07:45;93334.69;;;4.95;91.83
10466;BME280;5280;42.600;23.556;2023-02-23T06:10:12;93344.25;;;4.96;91.17
10466;BME280;5280;42.600;23.556;2023-02-23T06:12:39;93330.00;;;4.86;92.48
10466;BME280;5280;42.600;23.556;2023-02-23T06:15:07;93328.81;;;4.92;92.14
10466;BME280;5280;42.600;23.556;2023-02-23T06:17:35;93311.69;;;4.86;91.66
10466;BME280;5280;42.600;23.556;2023-02-23T06:20:03;93323.84;;;4.87;91.98
10466;BME280;5280;42.600;23.556;2023-02-23T06:22:31;93346.31;;;5.05;92.36
10466;BME280;5280;42.600;23.556;2023-02-23T06:24:58;93350.63;;;5.06;93.01
10466;BME280;5280;42.600;23.556;2023-02-23T06:27:26;93339.66;;;5.00;93.18
10466;BME280;5280;42.600;23.556;2023-02-23T06:29:53;93357.28;;;5.12;93.07
10466;BME280;5280;42.600;23.556;2023-02-23T06:32:20;93346.13;;;5.08;93.47
10466;BME280;5280;42.600;23.556;2023-02-23T06:34:48;93353.81;;;5.11;93.63
10466;BME280;5280;42.600;23.556;2023-02-23T06:37:15;93354.56;;;5.13;94.48
10466;BME280;5280;42.600;23.556;2023-02-23T06:39:41;93354.19;;;5.19;93.90
10466;BME280;5280;42.600;23.556;2023-02-23T06:42:08;93348.97;;;5.19;94.51
10466;BME280;5280;42.600;23.556;2023-02-23T06:44:35;93348.81;;;5.23;94.51
10466;BME280;5280;42.600;23.556;2023-02-23T06:47:02;93356.47;;;5.26;95.08
10466;BME280;5280;42.600;23.556;2023-02-23T06:49:29;93352.50;;;5.18;95.63
10466;BME280;5280;42.600;23.556;2023-02-23T06:51:58;93340.19;;;5.20;95.63
10466;BME280;5280;42.600;23.556;2023-02-23T06:54:25;93355.91;;;5.35;96.12
10466;BME280;5280;42.600;23.556;2023-02-23T06:56:51;93349.47;;;5.40;95.85
10466;BME280;5280;42.600;23.556;2023-02-23T06:59:21;93330.63;;;5.34;96.23
10466;BME280;5280;42.600;23.556;2023-02-23T07:01:48;93337.00;;;5.44;96.10
10466;BME280;5280;42.600;23.556;2023-02-23T07:04:15;93343.22;;;5.57;95.81
10466;BME280;5280;42.600;23.556;2023-02-23T07:06:42;93331.69;;;5.59;96.16
10466;BME280;5280;42.600;23.556;2023-02-23T07:09:10;93286.78;;;5.37;94.95
10466;BME280;5280;42.600;23.556;2023-02-23T07:11:38;93345.56;;;5.90;95.50
10466;BME280;5280;42.600;23.556;2023-02-23T07:14:07;93310.06;;;5.70;94.51
10466;BME280;5280;42.600;23.556;2023-02-23T07:16:36;93348.38;;;6.01;94.30
10466;BME280;5280;42.600;23.556;2023-02-23T07:19:03;93349.66;;;6.08;94.38
10466;BME280;5280;42.600;23.556;2023-02-23T07:21:30;93337.03;;;6.00;93.91
10466;BME280;5280;42.600;23.556;2023-02-23T07:23:57;93309.31;;;5.96;94.24
10466;BME280;5280;42.600;23.556;2023-02-23T07:26:26;93352.06;;;6.25;93.48
10466;BME280;5280;42.600;23.556;2023-02-23T07:28:53;93345.41;;;6.34;93.24
10466;BME280;5280;42.600;23.556;2023-02-23T07:31:20;93345.94;;;6.39;93.14
10466;BME280;5280;42.600;23.556;2023-02-23T07:33:46;93325.00;;;6.25;93.22
10466;BME280;5280;42.600;23.556;2023-02-23T07:36:13;93333.19;;;6.47;93.37
10466;BME280;5280;42.600;23.556;2023-02-23T07:38:40;93341.75;;;6.63;93.60
10466;BME280;5280;42.600;23.556;2023-02-23T07:41:07;93346.69;;;6.68;93.57
10466;BME280;5280;42.600;23.556;2023-02-23T07:43:35;93337.56;;;6.73;93.97
10466;BME280;5280;42.600;23.556;2023-02-23T07:46:03;93307.72;;;6.62;93.73
10466;BME280;5280;42.600;23.556;2023-02-23T07:48:29;93280.28;;;6.53;94.52
10466;BME280;5280;42.600;23.556;2023-02-23T07:50:57;93341.97;;;7.00;93.18
10466;BME280;5280;42.600;23.556;2023-02-23T07:53:24;93341.16;;;7.12;92.45
10466;BME280;5280;42.600;23.556;2023-02-23T07:55:55;93345.69;;;7.22;92.64
10466;BME280;5280;42.600;23.556;2023-02-23T07:58:21;93340.53;;;7.33;91.98
10466;BME280;5280;42.600;23.556;2023-02-23T08:00:50;93349.28;;;7.34;91.75
10466;BME280;5280;42.600;23.556;2023-02-23T08:03:17;93342.97;;;7.49;90.45
10466;BME280;5280;42.600;23.556;2023-02-23T08:05:43;93297.78;;;7.31;90.04
10466;BME280;5280;42.600;23.556;2023-02-23T08:08:10;93343.19;;;7.59;89.97
10466;BME280;5280;42.600;23.556;2023-02-23T08:10:37;93331.72;;;7.72;89.15
10466;BME280;5280;42.600;23.556;2023-02-23T08:13:05;93341.94;;;7.90;88.26
10466;BME280;5280;42.600;23.556;2023-02-23T08:15:32;93348.22;;;8.00;87.36
10466;BME280;5280;42.600;23.556;2023-02-23T08:18:00;93328.13;;;7.99;86.98
10466;BME280;5280;42.600;23.556;2023-02-23T08:20:27;93347.34;;;8.12;86.84
10466;BME280;5280;42.600;23.556;2023-02-23T08:22:54;93338.59;;;8.24;86.44
10466;BME280;5280;42.600;23.556;2023-02-23T08:25:21;93342.69;;;8.28;86.41
10466;BME280;5280;42.600;23.556;2023-02-23T08:27:49;93332.81;;;8.19;85.70
10466;BME280;5280;42.600;23.556;2023-02-23T08:30:18;93319.53;;;8.33;85.17
10466;BME280;5280;42.600;23.556;2023-02-23T08:32:46;93337.72;;;8.49;84.97
10466;BME280;5280;42.600;23.556;2023-02-23T08:35:14;93339.34;;;8.62;84.19
10466;BME280;5280;42.600;23.556;2023-02-23T08:37:43;93340.50;;;8.71;83.64
10466;BME280;5280;42.600;23.556;2023-02-23T08:40:12;93338.41;;;8.87;82.54
10466;BME280;5280;42.600;23.556;2023-02-23T08:42:43;93332.13;;;9.01;82.31
10466;BME280;5280;42.600;23.556;2023-02-23T08:45:10;93326.28;;;9.08;80.81
10466;BME280;5280;42.600;23.556;2023-02-23T08:47:38;93326.44;;;9.18;79.74
10466;BME280;5280;42.600;23.556;2023-02-23T08:50:06;93334.16;;;9.32;79.32
10466;BME280;5280;42.600;23.556;2023-02-23T08:52:37;93332.53;;;9.54;78.48
10466;BME280;5280;42.600;23.556;2023-02-23T08:55:04;93337.00;;;9.64;77.70
10466;BME280;5280;42.600;23.556;2023-02-23T08:57:32;93308.81;;;9.65;76.43
10466;BME280;5280;42.600;23.556;2023-02-23T08:59:58;93335.94;;;9.89;76.11
10466;BME280;5280;42.600;23.556;2023-02-23T09:02:26;93310.75;;;9.85;75.05
10466;BME280;5280;42.600;23.556;2023-02-23T09:04:53;93334.41;;;10.09;75.17
10466;BME280;5280;42.600;23.556;2023-02-23T09:07:21;93332.50;;;10.22;74.75
10466;BME280;5280;42.600;23.556;2023-02-23T09:09:54;93332.38;;;10.34;73.69
10466;BME280;5280;42.600;23.556;2023-02-23T09:12:21;93330.44;;;10.48;71.65
10466;BME280;5280;42.600;23.556;2023-02-23T09:14:48;93323.72;;;10.55;71.24
10466;BME280;5280;42.600;23.556;2023-02-23T09:17:15;93316.94;;;10.73;70.92
10466;BME280;5280;42.600;23.556;2023-02-23T09:19:42;93332.03;;;10.93;69.65
10466;BME280;5280;42.600;23.556;2023-02-23T09:22:09;93330.91;;;11.07;69.65
10466;BME280;5280;42.600;23.556;2023-02-23T09:24:36;93315.88;;;11.07;69.45
10466;BME280;5280;42.600;23.556;2023-02-23T09:27:05;93308.91;;;11.06;69.41
10466;BME280;5280;42.600;23.556;2023-02-23T09:29:32;93332.03;;;11.25;67.95
10466;BME280;5280;42.600;23.556;2023-02-23T09:32:02;93319.06;;;11.22;67.96
10466;BME280;5280;42.600;23.556;2023-02-23T09:34:29;93271.13;;;11.15;66.98
10466;BME280;5280;42.600;23.556;2023-02-23T09:36:56;93317.53;;;11.61;66.17
10466;BME280;5280;42.600;23.556;2023-02-23T09:39:23;93283.66;;;11.55;67.00
10466;BME280;5280;42.600;23.556;2023-02-23T09:41:59;93324.53;;;11.83;64.60
10466;BME280;5280;42.600;23.556;2023-02-23T09:44:41;93316.81;;;12.00;65.04
10466;BME280;5280;42.600;23.556;2023-02-23T09:47:28;93329.25;;;12.30;63.34
10466;BME280;5280;42.600;23.556;2023-02-23T09:49:58;93329.03;;;12.43;61.94
10466;BME280;5280;42.600;23.556;2023-02-23T09:52:33;93219.56;;;12.12;61.75
10466;BME280;5280;42.600;23.556;2023-02-23T09:55:02;93312.66;;;12.78;60.77
10466;BME280;5280;42.600;23.556;2023-02-23T09:57:36;93289.50;;;12.80;61.01
10466;BME280;5280;42.600;23.556;2023-02-23T10:00:12;93290.06;;;12.93;59.76
10466;BME280;5280;42.600;23.556;2023-02-23T10:02:54;93307.25;;;13.08;59.12
10466;BME280;5280;42.600;23.556;2023-02-23T10:05:27;93308.16;;;13.18;58.86
10466;BME280;5280;42.600;23.556;2023-02-23T10:08:00;93306.59;;;13.25;58.64
10466;BME280;5280;42.600;23.556;2023-02-23T10:10:36;93249.03;;;13.07;57.72
10466;BME280;5280;42.600;23.556;2023-02-23T10:13:13;93234.28;;;13.14;57.28
10466;BME280;5280;42.600;23.556;2023-02-23T10:15:49;93282.84;;;13.53;55.82
10466;BME280;5280;42.600;23.556;2023-02-23T10:18:25;93243.31;;;13.40;55.77
10466;BME280;5280;42.600;23.556;2023-02-23T10:21:00;93195.72;;;13.29;55.12
10466;BME280;5280;42.600;23.556;2023-02-23T10:23:35;93263.25;;;13.73;55.93
10466;BME280;5280;42.600;23.556;2023-02-23T10:26:04;93290.72;;;14.01;56.12
10466;BME280;5280;42.600;23.556;2023-02-23T10:28:35;93290.94;;;14.17;54.96
10466;BME280;5280;42.600;23.556;2023-02-23T10:31:19;93265.09;;;14.19;53.72
10466;BME280;5280;42.600;23.556;2023-02-23T10:33:50;93216.63;;;13.98;53.40
10466;BME280;5280;42.600;23.556;2023-02-23T10:36:30;93227.75;;;14.11;53.95
10466;BME280;5280;42.600;23.556;2023-02-23T10:38:58;93232.66;;;14.06;53.63
10466;BME280;5280;42.600;23.556;2023-02-23T10:41:25;93245.72;;;14.27;52.92
10466;BME280;5280;42.600;23.556;2023-02-23T10:43:52;93209.13;;;14.11;51.92
10466;BME280;5280;42.600;23.556;2023-02-23T10:46:34;93233.97;;;14.39;51.91
10466;BME280;5280;42.600;23.556;2023-02-23T10:49:03;93230.59;;;14.37;52.91
10466;BME280;5280;42.600;23.556;2023-02-23T10:51:36;93248.56;;;14.52;52.23
10466;BME280;5280;42.600;23.556;2023-02-23T10:57:20;93217.25;;;14.46;51.79
10466;BME280;5280;42.600;23.556;2023-02-23T11:00:21;93257.59;;;14.87;51.45
10466;BME280;5280;42.600;23.556;2023-02-23T11:02:54;93252.28;;;14.87;51.10
10466;BME280;5280;42.600;23.556;2023-02-23T11:05:35;93246.13;;;14.86;50.80
10466;BME280;5280;42.600;23.556;2023-02-23T11:08:13;93252.69;;;14.92;50.45
10466;BME280;5280;42.600;23.556;2023-02-23T11:10:54;93247.22;;;15.11;50.68
10466;BME280;5280;42.600;23.556;2023-02-23T11:13:22;93240.97;;;15.20;49.57
10466;BME280;5280;42.600;23.556;2023-02-23T11:15:58;93242.28;;;15.34;50.75
10466;BME280;5280;42.600;23.556;2023-02-23T11:18:26;93197.00;;;15.16;49.85
10466;BME280;5280;42.600;23.556;2023-02-23T11:20:54;93190.75;;;15.25;49.58
10466;BME280;5280;42.600;23.556;2023-02-23T11:23:22;93222.03;;;15.59;48.35
10466;BME280;5280;42.600;23.556;2023-02-23T11:25:55;93232.88;;;15.65;49.39
10466;BME280;5280;42.600;23.556;2023-02-23T11:28:28;93218.44;;;15.68;48.92
10466;BME280;5280;42.600;23.556;2023-02-23T11:30:57;93214.47;;;15.72;47.91
10466;BME280;5280;42.600;23.556;2023-02-23T11:33:30;93230.56;;;15.88;47.73
10466;BME280;5280;42.600;23.556;2023-02-23T11:36:14;93219.06;;;15.87;48.60
10466;BME280;5280;42.600;23.556;2023-02-23T11:38:43;93223.22;;;15.90;48.04
10466;BME280;5280;42.600;23.556;2023-02-23T11:41:22;93217.78;;;16.00;47.06
10466;BME280;5280;42.600;23.556;2023-02-23T11:43:50;93214.34;;;16.07;47.89
10466;BME280;5280;42.600;23.556;2023-02-23T11:46:20;93208.53;;;16.12;47.54
10466;BME280;5280;42.600;23.556;2023-02-23T11:48:50;93184.69;;;16.10;47.02
10466;BME280;5280;42.600;23.556;2023-02-23T11:51:23;93209.13;;;16.31;47.35
10466;BME280;5280;42.600;23.556;2023-02-23T11:53:53;93203.53;;;16.43;47.32
10466;BME280;5280;42.600;23.556;2023-02-23T11:56:22;93205.19;;;16.44;46.54
10466;BME280;5280;42.600;23.556;2023-02-23T11:58:51;93194.88;;;16.49;46.74
10466;BME280;5280;42.600;23.556;2023-02-23T12:01:22;93203.28;;;16.62;46.21
10466;BME280;5280;42.600;23.556;2023-02-23T12:03:53;93195.63;;;16.67;45.94
10466;BME280;5280;42.600;23.556;2023-02-23T12:06:29;93194.31;;;16.79;44.76
10466;BME280;5280;42.600;23.556;2023-02-23T12:09:01;93185.31;;;16.80;45.28
10466;BME280;5280;42.600;23.556;2023-02-23T12:11:33;93198.03;;;16.94;44.67
10466;BME280;5280;42.600;23.556;2023-02-23T12:14:06;93191.03;;;16.93;44.44
10466;BME280;5280;42.600;23.556;2023-02-23T12:16:38;93198.03;;;16.94;43.70
10466;BME280;5280;42.600;23.556;2023-02-23T12:19:17;93189.31;;;16.84;44.44
10466;BME280;5280;42.600;23.556;2023-02-23T12:21:51;93189.16;;;16.86;43.65
10466;BME280;5280;42.600;23.556;2023-02-23T12:24:27;93186.84;;;16.91;43.48
10466;BME280;5280;42.600;23.556;2023-02-23T12:26:59;93184.63;;;16.70;43.98
10466;BME280;5280;42.600;23.556;2023-02-23T12:29:32;93158.94;;;16.69;43.71
10466;BME280;5280;42.600;23.556;2023-02-23T12:32:05;93186.69;;;16.92;43.67
10466;BME280;5280;42.600;23.556;2023-02-23T12:34:40;93187.34;;;16.94;43.87
10466;BME280;5280;42.600;23.556;2023-02-23T12:37:18;93183.53;;;16.97;43.93
10466;BME280;5280;42.600;23.556;2023-02-23T12:39:57;93187.69;;;16.91;44.19
10466;BME280;5280;42.600;23.556;2023-02-23T12:42:36;93185.50;;;16.87;44.18
10466;BME280;5280;42.600;23.556;2023-02-23T12:45:14;93191.34;;;16.90;44.03
10466;BME280;5280;42.600;23.556;2023-02-23T12:47:48;93187.19;;;16.88;43.43
10466;BME280;5280;42.600;23.556;2023-02-23T12:50:25;93167.97;;;16.76;43.80
10466;BME280;5280;42.600;23.556;2023-02-23T12:52:55;93193.03;;;16.91;43.63
10466;BME280;5280;42.600;23.556;2023-02-23T12:55:29;93187.50;;;16.85;43.77
10466;BME280;5280;42.600;23.556;2023-02-23T12:58:05;93191.69;;;16.87;43.90
10466;BME280;5280;42.600;23.556;2023-02-23T13:00:44;93182.97;;;16.77;44.27
10466;BME280;5280;42.600;23.556;2023-02-23T13:03:46;93169.44;;;16.70;43.59
10466;BME280;5280;42.600;23.556;2023-02-23T13:06:21;93181.31;;;16.76;43.43
10466;BME280;5280;42.600;23.556;2023-02-23T13:09:05;93186.28;;;16.63;43.95
10466;BME280;5280;42.600;23.556;2023-02-23T13:11:48;93182.63;;;16.72;44.24
10466;BME280;5280;42.600;23.556;2023-02-23T13:14:25;93180.31;;;16.77;43.87
10466;BME280;5280;42.600;23.556;2023-02-23T13:16:57;93169.31;;;16.80;43.46
10466;BME280;5280;42.600;23.556;2023-02-23T13:19:30;93132.84;;;16.47;43.05
10466;BME280;5280;42.600;23.556;2023-02-23T13:22:09;93171.13;;;16.63;44.95
10466;BME280;5280;42.600;23.556;2023-02-23T13:24:45;93176.13;;;16.66;43.81
10466;BME280;5280;42.600;23.556;2023-02-23T13:27:15;93170.69;;;16.42;43.78
10466;BME280;5280;42.600;23.556;2023-02-23T13:29:47;93157.97;;;16.28;43.93
10466;BME280;5280;42.600;23.556;2023-02-23T13:32:18;93182.81;;;16.36;44.14
10466;BME280;5280;42.600;23.556;2023-02-23T13:34:50;93171.25;;;16.20;44.54
10466;BME280;5280;42.600;23.556;2023-02-23T13:37:24;93130.00;;;15.98;44.96
10466;BME280;5280;42.600;23.556;2023-02-23T13:39:58;93180.56;;;16.16;44.89